createdAt,value
2022-12-24T00:01:07.151Z,49.63
2022-12-24T00:03:37.221Z,59.10
2022-12-24T00:06:09.499Z,55.30
2022-12-24T00:08:37.240Z,54.67
2022-12-24T00:11:06.395Z,50.13
2022-12-24T00:13:35.994Z,58.37
2022-12-24T00:16:03.957Z,53.70
2022-12-24T00:18:31.335Z,56.27
2022-12-24T00:20:58.655Z,53.37
2022-12-24T00:23:26.325Z,54.70
2022-12-24T00:25:53.792Z,53.67
2022-12-24T00:28:22.038Z,48.83
2022-12-24T00:30:49.845Z,50.83
2022-12-24T00:33:24.088Z,55.03
2022-12-24T00:35:53.183Z,51.77
2022-12-24T00:38:20.669Z,50.08
2022-12-24T00:40:47.842Z,44.00
2022-12-24T00:43:15.573Z,42.47
2022-12-24T00:45:42.739Z,35.30
2022-12-24T00:48:10.227Z,31.27
2022-12-24T00:50:37.846Z,28.70
2022-12-24T00:53:05.155Z,37.53
2022-12-24T00:55:32.464Z,59.47
2022-12-24T00:58:00.126Z,54.47
2022-12-24T01:00:27.431Z,61.83
2022-12-24T01:02:54.897Z,54.92
2022-12-24T01:05:23.326Z,50.53
2022-12-24T01:07:50.618Z,46.47
2022-12-24T01:10:21.701Z,45.42
2022-12-24T01:12:50.436Z,48.85
2022-12-24T01:15:18.122Z,44.03
2022-12-24T01:17:45.529Z,43.30
2022-12-24T01:20:16.780Z,45.45
2022-12-24T01:22:44.683Z,49.97
2022-12-24T01:25:12.176Z,46.20
2022-12-24T01:27:39.730Z,42.92
2022-12-24T01:30:09.659Z,39.65
2022-12-24T01:32:37.032Z,43.55
2022-12-24T01:35:05.023Z,42.50
2022-12-24T01:37:32.318Z,42.92
2022-12-24T01:40:17.960Z,40.80
2022-12-24T01:43:06.681Z,40.83
2022-12-24T01:46:09.796Z,30.27
2022-12-24T01:48:42.848Z,37.85
2022-12-24T01:51:25.390Z,40.92
2022-12-24T01:54:00.326Z,40.95
2022-12-24T01:56:31.117Z,37.72
2022-12-24T01:59:04.851Z,34.22
2022-12-24T02:01:33.344Z,33.30
2022-12-24T02:04:05.940Z,32.17
2022-12-24T02:06:33.311Z,33.75
2022-12-24T02:09:01.063Z,32.83
2022-12-24T02:11:28.714Z,39.25
2022-12-24T02:14:00.590Z,39.88
2022-12-24T02:16:39.327Z,27.70
2022-12-24T02:19:09.754Z,31.80
2022-12-24T02:21:51.013Z,35.65
2022-12-24T02:24:44.961Z,37.10
2022-12-24T02:27:18.790Z,35.88
2022-12-24T02:30:29.913Z,36.45
2022-12-24T02:33:11.741Z,34.17
2022-12-24T02:35:51.764Z,31.83
2022-12-24T02:38:31.718Z,30.52
2022-12-24T02:41:06.124Z,28.97
2022-12-24T02:43:38.264Z,32.10
2022-12-24T02:46:19.024Z,33.40
2022-12-24T02:48:49.441Z,31.70
2022-12-24T02:51:17.269Z,31.62
2022-12-24T02:53:44.732Z,28.85
2022-12-24T02:56:18.348Z,30.25
2022-12-24T02:58:59.144Z,32.10
2022-12-24T03:02:10.157Z,30.98
2022-12-24T03:04:59.985Z,25.65
2022-12-24T03:07:56.764Z,21.93
2022-12-24T03:10:31.593Z,18.90
2022-12-24T03:13:07.026Z,16.70
2022-12-24T03:15:35.028Z,13.50
2022-12-24T03:18:05.583Z,15.23
2022-12-24T03:21:05.806Z,16.92
2022-12-24T03:23:35.197Z,15.07
2022-12-24T03:26:07.762Z,19.40
2022-12-24T03:28:39.304Z,21.00
2022-12-24T03:31:08.006Z,24.70
2022-12-24T03:33:36.132Z,32.15
2022-12-24T03:36:05.108Z,31.10
2022-12-24T03:38:32.599Z,39.55
2022-12-24T03:41:00.724Z,22.03
2022-12-24T03:43:28.238Z,21.37
2022-12-24T03:45:55.629Z,23.67
2022-12-24T03:48:30.784Z,22.20
2022-12-24T03:50:59.781Z,23.43
2022-12-24T03:53:27.337Z,33.37
2022-12-24T03:55:54.716Z,35.22
2022-12-24T03:58:24.764Z,32.83
2022-12-24T04:00:56.353Z,32.75
2022-12-24T04:03:24.663Z,30.90
2022-12-24T04:06:06.953Z,36.47
2022-12-24T04:08:35.563Z,32.53
2022-12-24T04:11:11.186Z,30.53
2022-12-24T04:13:40.560Z,29.73
2022-12-24T04:16:11.106Z,34.53
2022-12-24T04:18:39.356Z,32.80
2022-12-24T04:21:08.518Z,31.92
2022-12-24T04:23:39.843Z,31.77
2022-12-24T04:26:09.779Z,31.70
2022-12-24T04:28:38.442Z,32.50
2022-12-24T04:31:08.852Z,33.03
2022-12-24T04:33:37.116Z,33.75
2022-12-24T04:36:07.987Z,33.60
2022-12-24T04:38:35.701Z,39.00
2022-12-24T04:41:07.235Z,43.63
2022-12-24T04:43:35.023Z,42.05
2022-12-24T04:46:09.808Z,40.30
2022-12-24T04:48:38.517Z,45.80
2022-12-24T04:51:07.328Z,42.58
2022-12-24T04:53:35.875Z,54.70
2022-12-24T04:56:03.772Z,50.63
2022-12-24T04:58:31.475Z,46.23
2022-12-24T05:01:07.516Z,50.60
2022-12-24T05:03:35.445Z,45.60
2022-12-24T05:06:04.993Z,40.93
2022-12-24T05:08:32.440Z,30.73
2022-12-24T05:11:02.024Z,23.00
2022-12-24T05:13:39.066Z,24.60
2022-12-24T05:16:11.766Z,31.80
2022-12-24T05:18:39.463Z,41.35
2022-12-24T05:21:15.534Z,25.87
2022-12-24T05:24:02.425Z,15.17
2022-12-24T05:26:51.825Z,13.90
2022-12-24T05:29:19.713Z,16.83
2022-12-24T05:31:47.160Z,18.37
2022-12-24T05:34:15.761Z,19.10
2022-12-24T05:36:44.591Z,16.42
2022-12-24T05:39:18.821Z,18.50
2022-12-24T05:41:46.614Z,14.93
2022-12-24T05:44:15.061Z,14.43
2022-12-24T05:46:43.031Z,17.98
2022-12-24T05:49:10.801Z,22.67
2022-12-24T05:51:38.465Z,23.23
2022-12-24T05:54:05.925Z,22.30
2022-12-24T05:56:33.969Z,19.77
2022-12-24T05:59:01.267Z,20.20
2022-12-24T06:01:29.012Z,32.00
2022-12-24T06:03:57.846Z,41.87
2022-12-24T06:06:28.480Z,33.90
2022-12-24T06:08:56.363Z,15.02
2022-12-24T06:11:27.441Z,14.57
2022-12-24T06:13:56.122Z,13.07
2022-12-24T06:16:25.770Z,21.85
2022-12-24T06:21:21.324Z,16.33
2022-12-24T06:23:49.009Z,11.33
2022-12-24T06:26:19.783Z,15.13
2022-12-24T06:28:48.645Z,21.03
2022-12-24T06:31:18.475Z,17.42
2022-12-24T06:33:46.158Z,22.53
2022-12-24T06:36:19.743Z,25.23
2022-12-24T06:38:48.696Z,29.60
2022-12-24T06:41:17.734Z,24.55
2022-12-24T06:43:49.595Z,21.52
2022-12-24T06:46:18.330Z,22.27
2022-12-24T06:48:46.488Z,21.40
2022-12-24T06:51:15.613Z,23.87
2022-12-24T06:53:43.969Z,28.20
2022-12-24T06:56:13.865Z,28.47
2022-12-24T06:58:41.677Z,30.00
2022-12-24T07:01:12.864Z,32.40
2022-12-24T07:03:40.947Z,32.10
2022-12-24T07:06:35.227Z,34.35
2022-12-24T07:09:02.560Z,35.23
2022-12-24T07:11:30.147Z,36.93
2022-12-24T07:13:57.479Z,35.60
2022-12-24T07:16:24.906Z,33.83
2022-12-24T07:18:53.662Z,46.60
2022-12-24T07:21:21.148Z,42.83
2022-12-24T07:23:48.546Z,50.37
2022-12-24T07:26:16.567Z,49.10
2022-12-24T07:28:44.007Z,49.53
2022-12-24T07:31:11.513Z,29.00
2022-12-24T07:33:39.203Z,24.10
2022-12-24T07:36:10.265Z,28.40
2022-12-24T07:38:38.493Z,35.00
2022-12-24T07:41:06.188Z,29.30
2022-12-24T07:43:35.607Z,34.00
2022-12-24T07:46:03.970Z,37.50
2022-12-24T07:48:33.172Z,33.33
2022-12-24T07:51:01.225Z,35.40
2022-12-24T07:53:29.701Z,34.47
2022-12-24T07:55:58.383Z,46.20
2022-12-24T07:58:26.316Z,66.40
2022-12-24T08:00:59.070Z,60.03
2022-12-24T08:03:27.984Z,58.33
2022-12-24T08:05:55.748Z,58.13
2022-12-24T08:08:23.344Z,55.43
2022-12-24T08:10:52.152Z,59.40
2022-12-24T08:13:20.204Z,68.68
2022-12-24T08:15:47.801Z,70.67
2022-12-24T08:18:15.500Z,61.83
2022-12-24T08:20:42.836Z,49.07
2022-12-24T08:23:10.293Z,30.77
2022-12-24T08:25:38.646Z,41.93
2022-12-24T08:28:06.510Z,30.83
2022-12-24T08:30:34.767Z,39.93
2022-12-24T08:33:02.644Z,41.50
2022-12-24T08:35:30.167Z,43.53
2022-12-24T08:37:57.791Z,37.10
2022-12-24T08:40:25.612Z,40.37
2022-12-24T08:42:53.102Z,37.67
2022-12-24T08:45:20.537Z,36.20
2022-12-24T08:47:48.259Z,38.40
2022-12-24T08:50:15.832Z,33.13
2022-12-24T08:52:43.207Z,44.67
2022-12-24T08:55:10.845Z,38.10
2022-12-24T08:57:38.596Z,45.90
2022-12-24T09:00:07.255Z,57.37
2022-12-24T09:02:35.298Z,64.22
2022-12-24T09:05:03.091Z,66.83
2022-12-24T09:07:30.680Z,62.33
2022-12-24T09:10:00.346Z,71.87
2022-12-24T09:12:30.038Z,69.47
2022-12-24T09:15:03.204Z,64.00
2022-12-24T09:17:31.367Z,52.43
2022-12-24T09:19:59.055Z,38.00
2022-12-24T09:22:26.529Z,42.97
2022-12-24T09:24:54.702Z,21.80
2022-12-24T09:27:22.637Z,23.85
2022-12-24T09:29:50.135Z,22.53
2022-12-24T09:32:17.764Z,30.10
2022-12-24T09:34:45.505Z,32.40
2022-12-24T09:37:12.826Z,30.47
2022-12-24T09:39:40.228Z,27.97
2022-12-24T09:42:23.451Z,52.13
2022-12-24T09:44:59.107Z,50.97
2022-12-24T09:47:47.031Z,41.07
2022-12-24T09:50:32.718Z,38.27
2022-12-24T09:53:05.133Z,40.23
2022-12-24T09:55:44.442Z,70.83
2022-12-24T09:58:24.279Z,59.50
2022-12-24T10:00:52.977Z,51.27
2022-12-24T10:03:20.943Z,51.78
2022-12-24T10:05:56.382Z,48.13
2022-12-24T10:08:32.948Z,51.50
2022-12-24T10:11:09.290Z,57.40
2022-12-24T10:14:04.306Z,54.83
2022-12-24T10:16:58.542Z,54.57
2022-12-24T10:19:40.444Z,50.80
2022-12-24T10:22:49.032Z,54.27
2022-12-24T10:25:50.063Z,42.13
2022-12-24T10:28:21.892Z,36.53
2022-12-24T10:30:53.358Z,38.90
2022-12-24T10:33:38.777Z,32.33
2022-12-24T10:36:12.509Z,27.70
2022-12-24T10:38:39.991Z,30.00
2022-12-24T10:41:08.642Z,28.90
2022-12-24T10:43:37.932Z,25.07
2022-12-24T10:48:49.991Z,24.90
2022-12-24T10:51:46.236Z,26.37
2022-12-24T10:54:26.593Z,98.27
2022-12-24T10:57:00.487Z,86.80
2022-12-24T10:59:32.178Z,42.00
2022-12-24T11:02:01.400Z,37.77
2022-12-24T11:04:31.973Z,43.73
2022-12-24T11:07:07.421Z,115.63
2022-12-24T11:09:40.680Z,96.60
2022-12-24T11:12:19.207Z,43.93
2022-12-24T11:14:47.233Z,41.80
2022-12-24T11:17:23.832Z,40.77
2022-12-24T11:19:51.790Z,42.40
2022-12-24T11:22:28.396Z,41.87
2022-12-24T11:25:20.112Z,43.23
2022-12-24T11:27:50.846Z,44.27
2022-12-24T11:30:21.928Z,44.63
2022-12-24T11:33:04.441Z,37.83
2022-12-24T11:35:39.540Z,41.00
2022-12-24T11:38:06.822Z,46.43
2022-12-24T11:40:41.584Z,55.23
2022-12-24T11:43:20.977Z,56.57
2022-12-24T11:45:57.151Z,52.30
2022-12-24T11:48:30.285Z,58.43
2022-12-24T11:51:03.757Z,62.33
2022-12-24T11:54:06.580Z,57.17
2022-12-24T11:56:39.229Z,55.27
2022-12-24T11:59:42.020Z,84.17
2022-12-24T12:02:48.445Z,46.40
2022-12-24T12:05:32.297Z,47.40
2022-12-24T12:08:13.044Z,35.37
2022-12-24T12:10:43.780Z,25.80
2022-12-24T12:13:18.792Z,22.30
2022-12-24T12:15:56.263Z,11.83
2022-12-24T12:18:30.853Z,8.17
2022-12-24T12:21:06.393Z,8.53
2022-12-24T12:23:37.344Z,7.60
2022-12-24T12:26:11.375Z,9.43
2022-12-24T12:28:55.816Z,10.23
2022-12-24T12:31:32.380Z,14.20
2022-12-24T12:34:06.403Z,20.13
2022-12-24T12:36:41.310Z,12.37
2022-12-24T12:39:10.876Z,11.90
2022-12-24T12:41:47.696Z,12.53
2022-12-24T12:44:45.069Z,11.70
2022-12-24T12:47:27.817Z,12.10
2022-12-24T12:50:08.411Z,12.67
2022-12-24T12:53:18.023Z,14.33
2022-12-24T12:56:20.317Z,15.93
2022-12-24T12:59:07.620Z,14.97
2022-12-24T13:01:56.945Z,14.93
2022-12-24T13:05:01.743Z,14.30
2022-12-24T13:07:47.882Z,13.60
2022-12-24T13:10:27.347Z,15.17
2022-12-24T13:13:26.019Z,15.60
2022-12-24T13:15:53.776Z,17.55
2022-12-24T13:18:55.840Z,19.97
2022-12-24T13:21:26.798Z,17.60
2022-12-24T13:24:06.745Z,16.87
2022-12-24T13:26:35.732Z,18.77
2022-12-24T13:29:31.486Z,16.90
2022-12-24T13:32:21.264Z,16.23
2022-12-24T13:34:53.281Z,29.80
2022-12-24T13:37:34.919Z,25.67
2022-12-24T13:40:08.707Z,19.40
2022-12-24T13:43:07.222Z,16.23
2022-12-24T13:45:34.631Z,14.67
2022-12-24T13:48:02.278Z,16.57
2022-12-24T13:50:35.290Z,16.13
2022-12-24T13:53:04.221Z,15.00
2022-12-24T13:55:32.315Z,16.45
2022-12-24T13:58:03.442Z,19.17
2022-12-24T14:00:51.828Z,17.50
2022-12-24T14:03:27.148Z,21.83
2022-12-24T14:05:59.482Z,23.87
2022-12-24T14:08:31.696Z,19.40
2022-12-24T14:11:26.212Z,19.87
2022-12-24T14:14:04.070Z,20.37
2022-12-24T14:16:41.592Z,22.23
2022-12-24T14:19:20.736Z,20.53
2022-12-24T14:22:05.257Z,21.10
2022-12-24T14:24:41.862Z,35.50
2022-12-24T14:27:47.652Z,35.40
2022-12-24T14:30:25.720Z,37.03
2022-12-24T14:32:54.350Z,23.83
2022-12-24T14:35:39.882Z,27.85
2022-12-24T14:38:14.631Z,21.43
2022-12-24T14:40:54.971Z,20.97
2022-12-24T14:43:30.918Z,102.30
2022-12-24T14:46:12.615Z,243.20
2022-12-24T14:48:55.357Z,108.73
2022-12-24T14:51:40.332Z,107.13
2022-12-24T14:54:17.796Z,101.47
2022-12-24T14:56:45.465Z,209.97
2022-12-24T14:59:20.085Z,71.40
2022-12-24T15:01:47.880Z,42.23
2022-12-24T15:04:18.188Z,35.73
2022-12-24T15:06:57.872Z,38.07
2022-12-24T15:09:29.575Z,29.10
2022-12-24T15:12:03.991Z,38.90
2022-12-24T15:14:41.798Z,30.40
2022-12-24T15:17:12.558Z,25.77
2022-12-24T15:19:43.841Z,21.73
2022-12-24T15:22:26.131Z,20.27
2022-12-24T15:24:53.939Z,19.00
2022-12-24T15:27:25.961Z,20.03
2022-12-24T15:29:58.604Z,24.03
2022-12-24T15:32:26.064Z,22.37
2022-12-24T15:34:55.572Z,21.67
2022-12-24T15:39:58.793Z,24.00
2022-12-24T15:42:28.009Z,20.97
2022-12-24T15:45:28.211Z,28.40
2022-12-24T15:47:59.503Z,25.53
2022-12-24T15:50:27.421Z,26.33
2022-12-24T15:53:19.954Z,29.90
2022-12-24T15:55:48.226Z,28.83
2022-12-24T15:58:28.628Z,21.37
2022-12-24T16:01:24.118Z,23.10
2022-12-24T16:03:51.870Z,29.27
2022-12-24T16:06:20.530Z,28.33
2022-12-24T16:08:48.647Z,21.42
2022-12-24T16:11:36.284Z,16.73
2022-12-24T16:14:09.770Z,15.90
2022-12-24T16:16:46.867Z,15.30
2022-12-24T16:19:40.072Z,72.23
2022-12-24T16:22:30.343Z,75.03
2022-12-24T16:25:18.219Z,117.33
2022-12-24T16:27:45.931Z,73.50
2022-12-24T16:30:13.321Z,74.33
2022-12-24T16:32:44.488Z,79.23
2022-12-24T16:35:33.525Z,69.47
2022-12-24T16:38:00.837Z,60.12
2022-12-24T16:40:28.727Z,58.83
2022-12-24T16:43:17.411Z,66.90
2022-12-24T16:45:46.841Z,60.03
2022-12-24T16:48:20.916Z,34.10
2022-12-24T16:50:49.611Z,33.37
2022-12-24T16:53:19.116Z,33.20
2022-12-24T16:55:47.914Z,53.63
2022-12-24T16:58:16.462Z,110.25
2022-12-24T17:00:45.036Z,85.37
2022-12-24T17:03:12.918Z,70.97
2022-12-24T17:05:42.468Z,70.57
2022-12-24T17:10:37.404Z,59.13
2022-12-24T17:13:05.821Z,85.40
2022-12-24T17:15:33.298Z,70.50
2022-12-24T17:18:01.010Z,64.67
2022-12-24T17:20:29.700Z,51.88
2022-12-24T17:22:57.321Z,39.90
2022-12-24T17:25:25.292Z,37.23
2022-12-24T17:27:52.958Z,44.67
2022-12-24T17:30:20.559Z,44.53
2022-12-24T17:32:47.998Z,56.40
2022-12-24T17:35:16.225Z,55.77
2022-12-24T17:37:43.802Z,62.23
2022-12-24T17:40:11.981Z,65.37
2022-12-24T17:42:39.718Z,84.00
2022-12-24T17:45:07.454Z,68.57
2022-12-24T17:47:34.984Z,61.13
2022-12-24T17:50:02.808Z,56.47
2022-12-24T17:52:30.339Z,56.50
2022-12-24T17:54:57.706Z,53.00
2022-12-24T17:57:25.458Z,56.50
2022-12-24T17:59:52.961Z,50.90
2022-12-24T18:02:20.618Z,51.47
2022-12-24T18:04:48.512Z,49.40
2022-12-24T18:07:15.960Z,47.87
2022-12-24T18:09:46.407Z,47.83
2022-12-24T18:12:14.383Z,70.90
2022-12-24T18:14:41.782Z,45.43
2022-12-24T18:17:09.425Z,49.23
2022-12-24T18:19:37.127Z,43.33
2022-12-24T18:22:04.396Z,36.07
2022-12-24T18:24:31.686Z,32.77
2022-12-24T18:26:59.493Z,40.90
2022-12-24T18:29:26.767Z,50.80
2022-12-24T18:31:54.215Z,53.70
2022-12-24T18:34:21.801Z,99.97
2022-12-24T18:36:54.763Z,85.07
2022-12-24T18:39:23.550Z,41.17
2022-12-24T18:41:51.434Z,51.93
2022-12-24T18:44:24.532Z,49.97
2022-12-24T18:46:54.407Z,35.70
2022-12-24T18:49:21.944Z,61.85
2022-12-24T18:51:49.212Z,53.73
2022-12-24T18:54:17.068Z,43.27
2022-12-24T18:56:44.422Z,37.97
2022-12-24T18:59:11.726Z,30.53
2022-12-24T19:01:39.698Z,41.67
2022-12-24T19:04:08.421Z,17.55
2022-12-24T19:06:36.017Z,59.70
2022-12-24T19:09:03.748Z,24.90
2022-12-24T19:11:32.993Z,16.70
2022-12-24T19:14:02.216Z,22.70
2022-12-24T19:16:32.983Z,18.00
2022-12-24T19:19:00.497Z,12.73
2022-12-24T19:21:27.832Z,11.97
2022-12-24T19:23:55.460Z,9.20
2022-12-24T19:26:23.954Z,12.20
2022-12-24T19:28:51.751Z,14.40
2022-12-24T19:31:22.956Z,23.40
2022-12-24T19:33:56.116Z,17.07
2022-12-24T19:36:29.537Z,12.83
2022-12-24T19:38:58.314Z,17.03
2022-12-24T19:41:29.151Z,13.80
2022-12-24T19:43:58.787Z,10.47
2022-12-24T19:46:30.134Z,15.00
2022-12-24T19:49:00.393Z,11.40
2022-12-24T19:51:29.886Z,15.20
2022-12-24T19:53:59.548Z,15.93
2022-12-24T19:56:29.142Z,18.87
2022-12-24T19:58:57.903Z,17.27
2022-12-24T20:01:27.875Z,14.18
2022-12-24T20:03:56.586Z,12.30
2022-12-24T20:06:26.840Z,14.65
2022-12-24T20:09:01.994Z,15.03
2022-12-24T20:11:30.221Z,8.80
2022-12-24T20:14:00.508Z,14.35
2022-12-24T20:16:29.654Z,17.60
2022-12-24T20:19:00.308Z,12.53
2022-12-24T20:21:28.092Z,8.17
2022-12-24T20:23:55.728Z,6.07
2022-12-24T20:26:26.977Z,12.47
2022-12-24T20:28:55.329Z,9.10
2022-12-24T20:31:26.133Z,32.58
2022-12-24T20:33:54.074Z,22.00
2022-12-24T20:36:23.521Z,32.33
2022-12-24T20:38:51.659Z,59.87
2022-12-24T20:41:22.560Z,69.07
2022-12-24T20:43:50.663Z,49.43
2022-12-24T20:46:20.677Z,47.55
2022-12-24T20:48:49.111Z,36.77
2022-12-24T20:51:24.698Z,31.12
2022-12-24T20:53:54.303Z,25.97
2022-12-24T20:56:22.603Z,24.52
2022-12-24T20:58:50.187Z,20.85
2022-12-24T21:01:22.003Z,18.50
2022-12-24T21:03:49.433Z,14.67
2022-12-24T21:06:18.126Z,11.77
2022-12-24T21:08:48.636Z,9.68
2022-12-24T21:11:34.343Z,8.50
2022-12-24T21:14:03.395Z,6.97
2022-12-24T21:16:32.585Z,6.23
2022-12-24T21:19:00.485Z,18.52
2022-12-24T21:21:28.575Z,15.77
2022-12-24T21:23:56.051Z,13.73
2022-12-24T21:26:23.614Z,13.37
2022-12-24T21:28:51.317Z,10.97
2022-12-24T21:31:18.838Z,11.40
2022-12-24T21:33:46.808Z,27.40
2022-12-24T21:36:15.932Z,40.17
2022-12-24T21:38:43.763Z,48.17
2022-12-24T21:41:14.388Z,40.03
2022-12-24T21:43:42.731Z,46.57
2022-12-24T21:46:13.215Z,60.40
2022-12-24T21:48:59.682Z,34.60
2022-12-24T21:51:28.489Z,26.23
2022-12-24T21:54:15.402Z,25.92
2022-12-24T21:57:06.715Z,23.17
2022-12-24T21:59:34.238Z,88.33
2022-12-24T22:02:02.116Z,74.60
2022-12-24T22:04:32.499Z,66.97
2022-12-24T22:07:18.355Z,75.83
2022-12-24T22:10:24.821Z,68.63
2022-12-24T22:12:53.748Z,59.27
2022-12-24T22:15:21.927Z,53.40
2022-12-24T22:17:49.289Z,42.83
2022-12-24T22:20:16.771Z,44.93
2022-12-24T22:22:44.383Z,60.00
2022-12-24T22:27:41.148Z,51.00
2022-12-24T22:30:09.657Z,47.63
2022-12-24T22:32:37.116Z,42.43
2022-12-24T22:35:04.745Z,32.23
2022-12-24T22:37:32.399Z,28.73
2022-12-24T22:39:59.687Z,31.83
2022-12-24T22:42:27.013Z,34.83
2022-12-24T22:44:54.650Z,27.27
2022-12-24T22:47:21.975Z,19.57
2022-12-24T22:49:50.582Z,15.05
2022-12-24T22:52:18.236Z,25.17
2022-12-24T22:54:45.517Z,35.90
2022-12-24T22:57:13.135Z,69.77
2022-12-24T22:59:40.724Z,56.80
2022-12-24T23:02:08.366Z,55.83
2022-12-24T23:04:40.951Z,50.90
2022-12-24T23:07:11.424Z,42.73
2022-12-24T23:09:39.680Z,26.57
2022-12-24T23:12:08.334Z,25.83
2022-12-24T23:14:54.684Z,27.40
2022-12-24T23:17:21.998Z,47.13
2022-12-24T23:19:49.641Z,40.93
2022-12-24T23:22:16.970Z,55.00
2022-12-24T23:24:44.636Z,53.27
2022-12-24T23:27:12.402Z,53.00
2022-12-24T23:29:40.059Z,61.33
2022-12-24T23:32:07.391Z,49.40
2022-12-24T23:34:35.011Z,42.17
2022-12-24T23:37:02.217Z,33.63
2022-12-24T23:39:29.564Z,35.90
2022-12-24T23:41:57.398Z,27.93
2022-12-24T23:44:31.762Z,24.27
2022-12-24T23:47:00.364Z,35.77
2022-12-24T23:49:27.911Z,36.97
2022-12-24T23:51:55.296Z,39.37
2022-12-24T23:54:23.085Z,46.90
2022-12-24T23:56:50.404Z,40.43
2022-12-24T23:59:17.704Z,41.57
